sensor_id;sensor_type;location;lat;lon;timestamp;pressure;altitude;pressure_sealevel;temperature;humidity
60976;BME280;46849;48.154;17.042;2022-10-16T00:02:51;99068.81;;;11.76;100.00
60976;BME280;46849;48.154;17.042;2022-10-16T00:05:42;99063.78;;;11.73;100.00
60976;BME280;46849;48.154;17.042;2022-10-16T00:08:28;99069.66;;;11.76;100.00
60976;BME280;46849;48.154;17.042;2022-10-16T00:11:16;99072.38;;;11.75;100.00
60976;BME280;46849;48.154;17.042;2022-10-16T00:14:02;99073.94;;;11.77;100.00
60976;BME280;46849;48.154;17.042;2022-10-16T00:16:47;99078.16;;;11.80;100.00
60976;BME280;46849;48.154;17.042;2022-10-16T00:19:32;99081.59;;;11.80;100.00
60976;BME280;46849;48.154;17.042;2022-10-16T00:22:17;99082.66;;;11.78;100.00
60976;BME280;46849;48.154;17.042;2022-10-16T00:25:08;99079.31;;;11.76;100.00
60976;BME280;46849;48.154;17.042;2022-10-16T00:27:53;99083.91;;;11.72;100.00
60976;BME280;46849;48.154;17.042;2022-10-16T00:30:38;99081.28;;;11.72;100.00
60976;BME280;46849;48.154;17.042;2022-10-16T00:33:22;99076.16;;;11.70;100.00
60976;BME280;46849;48.154;17.042;2022-10-16T00:36:10;99084.56;;;11.76;100.00
60976;BME280;46849;48.154;17.042;2022-10-16T00:38:57;99085.63;;;11.73;100.00
60976;BME280;46849;48.154;17.042;2022-10-16T00:41:43;99090.88;;;11.73;100.00
60976;BME280;46849;48.154;17.042;2022-10-16T00:47:42;99090.44;;;11.66;100.00
60976;BME280;46849;48.154;17.042;2022-10-16T00:50:33;99090.75;;;11.62;100.00
60976;BME280;46849;48.154;17.042;2022-10-16T00:53:18;99095.25;;;11.60;100.00
60976;BME280;46849;48.154;17.042;2022-10-16T00:56:04;99099.44;;;11.62;100.00
60976;BME280;46849;48.154;17.042;2022-10-16T00:58:48;99103.22;;;11.58;100.00
60976;BME280;46849;48.154;17.042;2022-10-16T01:01:33;99103.22;;;11.58;100.00
60976;BME280;46849;48.154;17.042;2022-10-16T01:04:18;99105.84;;;11.58;100.00
60976;BME280;46849;48.154;17.042;2022-10-16T01:10:30;99111.84;;;11.60;100.00
60976;BME280;46849;48.154;17.042;2022-10-16T01:13:26;99109.44;;;11.57;100.00
60976;BME280;46849;48.154;17.042;2022-10-16T01:16:22;99107.53;;;11.59;100.00
60976;BME280;46849;48.154;17.042;2022-10-16T01:19:15;99111.09;;;11.58;100.00
60976;BME280;46849;48.154;17.042;2022-10-16T01:22:03;99098.19;;;11.55;100.00
60976;BME280;46849;48.154;17.042;2022-10-16T01:24:49;99097.56;;;11.51;100.00
60976;BME280;46849;48.154;17.042;2022-10-16T01:27:35;99094.72;;;11.54;100.00
60976;BME280;46849;48.154;17.042;2022-10-16T01:30:26;99100.91;;;11.53;100.00
60976;BME280;46849;48.154;17.042;2022-10-16T01:33:20;99101.84;;;11.52;100.00
60976;BME280;46849;48.154;17.042;2022-10-16T01:36:15;99093.88;;;11.54;100.00
60976;BME280;46849;48.154;17.042;2022-10-16T01:39:01;99107.63;;;11.57;100.00
60976;BME280;46849;48.154;17.042;2022-10-16T01:41:49;99106.06;;;11.55;100.00
60976;BME280;46849;48.154;17.042;2022-10-16T01:44:36;99113.19;;;11.53;100.00
60976;BME280;46849;48.154;17.042;2022-10-16T01:47:25;99110.78;;;11.50;100.00
60976;BME280;46849;48.154;17.042;2022-10-16T01:50:12;99110.88;;;11.48;100.00
60976;BME280;46849;48.154;17.042;2022-10-16T01:52:59;99112.75;;;11.46;100.00
60976;BME280;46849;48.154;17.042;2022-10-16T01:55:47;99112.84;;;11.44;100.00
60976;BME280;46849;48.154;17.042;2022-10-16T01:58:36;99112.03;;;11.44;100.00
60976;BME280;46849;48.154;17.042;2022-10-16T02:01:25;99115.59;;;11.43;100.00
60976;BME280;46849;48.154;17.042;2022-10-16T02:04:22;99106.06;;;11.42;100.00
60976;BME280;46849;48.154;17.042;2022-10-16T02:07:09;99113.06;;;11.41;100.00
60976;BME280;46849;48.154;17.042;2022-10-16T02:09:54;99107.63;;;11.44;100.00
60976;BME280;46849;48.154;17.042;2022-10-16T02:12:44;99104.06;;;11.45;100.00
60976;BME280;46849;48.154;17.042;2022-10-16T02:15:30;99103.13;;;11.46;100.00
60976;BME280;46849;48.154;17.042;2022-10-16T02:18:15;99108.03;;;11.51;100.00
60976;BME280;46849;48.154;17.042;2022-10-16T02:21:22;99111.31;;;11.55;100.00
60976;BME280;46849;48.154;17.042;2022-10-16T02:27:14;99109.34;;;11.58;100.00
60976;BME280;46849;48.154;17.042;2022-10-16T02:30:07;99100.59;;;11.58;100.00
60976;BME280;46849;48.154;17.042;2022-10-16T02:32:53;99097.97;;;11.58;100.00
60976;BME280;46849;48.154;17.042;2022-10-16T02:35:41;99103.13;;;11.60;100.00
60976;BME280;46849;48.154;17.042;2022-10-16T02:38:27;99106.59;;;11.60;100.00
60976;BME280;46849;48.154;17.042;2022-10-16T02:41:13;99121.19;;;11.64;100.00
60976;BME280;46849;48.154;17.042;2022-10-16T02:43:58;99118.88;;;11.60;100.00
60976;BME280;46849;48.154;17.042;2022-10-16T02:46:43;99124.13;;;11.60;100.00
60976;BME280;46849;48.154;17.042;2022-10-16T02:49:27;99125.69;;;11.62;100.00
60976;BME280;46849;48.154;17.042;2022-10-16T02:52:12;99120.66;;;11.59;100.00
60976;BME280;46849;48.154;17.042;2022-10-16T02:54:56;99122.25;;;11.62;100.00
60976;BME280;46849;48.154;17.042;2022-10-16T02:57:41;99124.88;;;11.62;100.00
60976;BME280;46849;48.154;17.042;2022-10-16T03:00:26;99118.66;;;11.63;100.00
60976;BME280;46849;48.154;17.042;2022-10-16T03:03:11;99124.00;;;11.61;100.00
60976;BME280;46849;48.154;17.042;2022-10-16T03:05:55;99122.84;;;11.65;100.00
60976;BME280;46849;48.154;17.042;2022-10-16T03:08:40;99122.97;;;11.64;100.00
60976;BME280;46849;48.154;17.042;2022-10-16T03:11:24;99116.78;;;11.65;100.00
60976;BME280;46849;48.154;17.042;2022-10-16T03:14:09;99125.28;;;11.68;100.00
60976;BME280;46849;48.154;17.042;2022-10-16T03:16:53;99135.78;;;11.68;100.00
60976;BME280;46849;48.154;17.042;2022-10-16T03:19:38;99127.06;;;11.68;100.00
60976;BME280;46849;48.154;17.042;2022-10-16T03:22:22;99126.88;;;11.71;100.00
60976;BME280;46849;48.154;17.042;2022-10-16T03:25:07;99139.03;;;11.72;100.00
60976;BME280;46849;48.154;17.042;2022-10-16T03:27:53;99139.66;;;11.76;100.00
60976;BME280;46849;48.154;17.042;2022-10-16T03:30:37;99145.56;;;11.79;100.00
60976;BME280;46849;48.154;17.042;2022-10-16T03:33:24;99141.56;;;11.74;100.00
60976;BME280;46849;48.154;17.042;2022-10-16T03:36:10;99156.78;;;11.68;100.00
60976;BME280;46849;48.154;17.042;2022-10-16T03:38:55;99156.97;;;11.65;100.00
60976;BME280;46849;48.154;17.042;2022-10-16T03:41:40;99161.50;;;11.63;100.00
60976;BME280;46849;48.154;17.042;2022-10-16T03:44:24;99152.84;;;11.48;100.00
60976;BME280;46849;48.154;17.042;2022-10-16T03:47:09;99167.31;;;11.41;100.00
60976;BME280;46849;48.154;17.042;2022-10-16T03:49:54;99164.38;;;11.32;100.00
60976;BME280;46849;48.154;17.042;2022-10-16T03:52:38;99159.41;;;11.28;100.00
60976;BME280;46849;48.154;17.042;2022-10-16T03:55:22;99157.28;;;11.20;100.00
60976;BME280;46849;48.154;17.042;2022-10-16T03:58:07;99166.41;;;11.14;100.00
60976;BME280;46849;48.154;17.042;2022-10-16T04:00:51;99171.75;;;11.13;100.00
60976;BME280;46849;48.154;17.042;2022-10-16T04:03:36;99171.94;;;11.09;100.00
60976;BME280;46849;48.154;17.042;2022-10-16T04:06:21;99174.66;;;11.08;100.00
60976;BME280;46849;48.154;17.042;2022-10-16T04:09:05;99172.16;;;11.06;100.00
60976;BME280;46849;48.154;17.042;2022-10-16T04:11:50;99172.88;;;11.08;100.00
60976;BME280;46849;48.154;17.042;2022-10-16T04:14:35;99170.25;;;11.08;100.00
60976;BME280;46849;48.154;17.042;2022-10-16T04:17:19;99179.91;;;11.08;100.00
60976;BME280;46849;48.154;17.042;2022-10-16T04:20:05;99191.22;;;11.08;100.00
60976;BME280;46849;48.154;17.042;2022-10-16T04:22:49;99177.41;;;11.06;100.00
60976;BME280;46849;48.154;17.042;2022-10-16T04:25:34;99179.06;;;11.07;100.00
60976;BME280;46849;48.154;17.042;2022-10-16T04:28:19;99170.16;;;11.10;100.00
60976;BME280;46849;48.154;17.042;2022-10-16T04:31:04;99183.34;;;11.08;100.00
60976;BME280;46849;48.154;17.042;2022-10-16T04:33:49;99183.47;;;11.07;100.00
60976;BME280;46849;48.154;17.042;2022-10-16T04:36:34;99189.94;;;11.01;100.00
60976;BME280;46849;48.154;17.042;2022-10-16T04:39:19;99179.75;;;10.96;100.00
60976;BME280;46849;48.154;17.042;2022-10-16T04:42:04;99184.66;;;10.88;100.00
60976;BME280;46849;48.154;17.042;2022-10-16T04:44:49;99183.91;;;10.86;100.00
60976;BME280;46849;48.154;17.042;2022-10-16T04:47:33;99178.84;;;10.83;100.00
60976;BME280;46849;48.154;17.042;2022-10-16T04:50:18;99182.56;;;10.79;100.00
60976;BME280;46849;48.154;17.042;2022-10-16T04:53:19;99198.97;;;10.82;100.00
60976;BME280;46849;48.154;17.042;2022-10-16T04:56:06;99197.69;;;10.75;100.00
60976;BME280;46849;48.154;17.042;2022-10-16T04:58:50;99198.50;;;10.76;100.00
60976;BME280;46849;48.154;17.042;2022-10-16T05:01:35;99198.59;;;10.74;100.00
60976;BME280;46849;48.154;17.042;2022-10-16T05:04:20;99202.25;;;10.71;100.00
60976;BME280;46849;48.154;17.042;2022-10-16T05:07:04;99201.50;;;10.69;100.00
60976;BME280;46849;48.154;17.042;2022-10-16T05:09:48;99194.50;;;10.70;100.00
60976;BME280;46849;48.154;17.042;2022-10-16T05:12:34;99198.06;;;10.69;100.00
60976;BME280;46849;48.154;17.042;2022-10-16T05:15:25;99204.31;;;10.66;100.00
60976;BME280;46849;48.154;17.042;2022-10-16T05:18:10;99210.69;;;10.62;100.00
60976;BME280;46849;48.154;17.042;2022-10-16T05:20:56;99209.94;;;10.60;100.00
60976;BME280;46849;48.154;17.042;2022-10-16T05:23:41;99212.38;;;10.63;100.00
60976;BME280;46849;48.154;17.042;2022-10-16T05:26:25;99221.00;;;10.65;100.00
60976;BME280;46849;48.154;17.042;2022-10-16T05:29:11;99232.13;;;10.69;100.00
60976;BME280;46849;48.154;17.042;2022-10-16T05:31:58;99237.91;;;10.74;100.00
60976;BME280;46849;48.154;17.042;2022-10-16T05:34:43;99235.00;;;10.79;100.00
60976;BME280;46849;48.154;17.042;2022-10-16T05:37:28;99230.69;;;10.78;100.00
60976;BME280;46849;48.154;17.042;2022-10-16T05:40:13;99225.81;;;10.86;100.00
60976;BME280;46849;48.154;17.042;2022-10-16T05:43:01;99229.81;;;10.92;100.00
60976;BME280;46849;48.154;17.042;2022-10-16T05:46:00;99230.84;;;11.04;100.00
60976;BME280;46849;48.154;17.042;2022-10-16T05:48:47;99242.84;;;11.08;100.00
60976;BME280;46849;48.154;17.042;2022-10-16T05:51:32;99233.63;;;11.15;100.00
60976;BME280;46849;48.154;17.042;2022-10-16T05:54:17;99251.03;;;11.31;100.00
60976;BME280;46849;48.154;17.042;2022-10-16T05:57:01;99248.31;;;11.32;100.00
60976;BME280;46849;48.154;17.042;2022-10-16T05:59:49;99255.19;;;11.48;100.00
60976;BME280;46849;48.154;17.042;2022-10-16T06:02:34;99262.25;;;11.61;100.00
60976;BME280;46849;48.154;17.042;2022-10-16T06:05:18;99263.03;;;11.76;100.00
60976;BME280;46849;48.154;17.042;2022-10-16T06:08:03;99272.34;;;11.94;100.00
60976;BME280;46849;48.154;17.042;2022-10-16T06:10:48;99277.53;;;12.09;100.00
60976;BME280;46849;48.154;17.042;2022-10-16T06:13:33;99281.00;;;12.23;100.00
60976;BME280;46849;48.154;17.042;2022-10-16T06:16:18;99283.75;;;12.47;100.00
60976;BME280;46849;48.154;17.042;2022-10-16T06:19:03;99283.03;;;12.32;100.00
60976;BME280;46849;48.154;17.042;2022-10-16T06:21:50;99285.94;;;12.27;100.00
60976;BME280;46849;48.154;17.042;2022-10-16T06:24:35;99284.19;;;12.00;100.00
60976;BME280;46849;48.154;17.042;2022-10-16T06:27:19;99282.16;;;12.18;100.00
60976;BME280;46849;48.154;17.042;2022-10-16T06:30:04;99294.69;;;12.41;100.00
60976;BME280;46849;48.154;17.042;2022-10-16T06:32:49;99285.34;;;12.37;100.00
60976;BME280;46849;48.154;17.042;2022-10-16T06:35:33;99295.31;;;12.31;100.00
60976;BME280;46849;48.154;17.042;2022-10-16T06:38:18;99300.00;;;12.13;100.00
60976;BME280;46849;48.154;17.042;2022-10-16T06:41:03;99311.69;;;12.22;100.00
60976;BME280;46849;48.154;17.042;2022-10-16T06:43:49;99309.53;;;12.68;100.00
60976;BME280;46849;48.154;17.042;2022-10-16T06:46:33;99310.09;;;12.98;100.00
60976;BME280;46849;48.154;17.042;2022-10-16T06:49:18;99310.81;;;13.13;98.76
60976;BME280;46849;48.154;17.042;2022-10-16T06:52:06;99327.47;;;13.13;99.04
60976;BME280;46849;48.154;17.042;2022-10-16T06:54:51;99329.06;;;13.40;97.65
60976;BME280;46849;48.154;17.042;2022-10-16T06:57:35;99335.41;;;13.38;97.60
60976;BME280;46849;48.154;17.042;2022-10-16T07:00:21;99336.13;;;13.77;95.44
60976;BME280;46849;48.154;17.042;2022-10-16T07:03:05;99334.91;;;13.95;93.94
60976;BME280;46849;48.154;17.042;2022-10-16T07:05:50;99337.00;;;14.14;93.15
60976;BME280;46849;48.154;17.042;2022-10-16T07:08:37;99343.44;;;14.34;91.33
60976;BME280;46849;48.154;17.042;2022-10-16T07:11:23;99338.63;;;14.39;90.30
60976;BME280;46849;48.154;17.042;2022-10-16T07:14:19;99344.25;;;14.82;87.67
60976;BME280;46849;48.154;17.042;2022-10-16T07:17:04;99341.13;;;14.77;87.77
60976;BME280;46849;48.154;17.042;2022-10-16T07:19:50;99343.03;;;14.75;88.10
60976;BME280;46849;48.154;17.042;2022-10-16T07:22:37;99339.94;;;15.15;86.53
60976;BME280;46849;48.154;17.042;2022-10-16T07:25:21;99346.41;;;15.11;85.43
60976;BME280;46849;48.154;17.042;2022-10-16T07:28:06;99352.03;;;15.07;86.33
60976;BME280;46849;48.154;17.042;2022-10-16T07:30:51;99353.56;;;15.55;84.28
60976;BME280;46849;48.154;17.042;2022-10-16T07:33:36;99342.56;;;15.83;82.76
60976;BME280;46849;48.154;17.042;2022-10-16T07:36:21;99338.19;;;16.05;82.41
60976;BME280;46849;48.154;17.042;2022-10-16T07:39:05;99346.25;;;16.03;80.03
60976;BME280;46849;48.154;17.042;2022-10-16T07:41:51;99342.19;;;15.99;81.33
60976;BME280;46849;48.154;17.042;2022-10-16T07:44:36;99348.91;;;16.24;79.15
60976;BME280;46849;48.154;17.042;2022-10-16T07:47:21;99356.06;;;16.55;79.97
60976;BME280;46849;48.154;17.042;2022-10-16T07:50:05;99360.53;;;16.55;78.09
60976;BME280;46849;48.154;17.042;2022-10-16T07:52:50;99369.69;;;16.72;77.38
60976;BME280;46849;48.154;17.042;2022-10-16T07:55:38;99364.31;;;16.62;77.74
60976;BME280;46849;48.154;17.042;2022-10-16T07:58:22;99367.50;;;16.34;79.17
60976;BME280;46849;48.154;17.042;2022-10-16T08:01:08;99373.22;;;16.82;76.40
60976;BME280;46849;48.154;17.042;2022-10-16T08:03:53;99371.09;;;17.39;75.44
60976;BME280;46849;48.154;17.042;2022-10-16T08:06:40;99360.50;;;18.29;73.33
60976;BME280;46849;48.154;17.042;2022-10-16T08:09:25;99365.00;;;18.87;70.05
60976;BME280;46849;48.154;17.042;2022-10-16T08:12:09;99368.00;;;19.68;66.71
60976;BME280;46849;48.154;17.042;2022-10-16T08:14:54;99371.28;;;19.33;65.86
60976;BME280;46849;48.154;17.042;2022-10-16T08:17:39;99370.97;;;19.37;65.81
60976;BME280;46849;48.154;17.042;2022-10-16T08:20:25;99367.84;;;18.75;68.36
60976;BME280;46849;48.154;17.042;2022-10-16T08:23:11;99366.38;;;18.13;70.64
60976;BME280;46849;48.154;17.042;2022-10-16T08:26:03;99374.09;;;16.93;75.41
60976;BME280;46849;48.154;17.042;2022-10-16T08:28:50;99377.13;;;17.41;75.17
60976;BME280;46849;48.154;17.042;2022-10-16T08:31:35;99395.84;;;16.96;74.80
60976;BME280;46849;48.154;17.042;2022-10-16T08:34:20;99391.38;;;16.11;79.99
60976;BME280;46849;48.154;17.042;2022-10-16T08:37:04;99389.91;;;15.74;82.16
60976;BME280;46849;48.154;17.042;2022-10-16T08:39:50;99393.28;;;15.65;83.61
60976;BME280;46849;48.154;17.042;2022-10-16T08:48:53;99412.78;;;16.08;82.95
60976;BME280;46849;48.154;17.042;2022-10-16T08:51:39;99404.97;;;15.95;83.29
60976;BME280;46849;48.154;17.042;2022-10-16T08:54:32;99409.75;;;17.41;76.14
60976;BME280;46849;48.154;17.042;2022-10-16T08:57:22;99410.53;;;17.83;74.25
60976;BME280;46849;48.154;17.042;2022-10-16T09:00:13;99393.56;;;18.55;71.92
60976;BME280;46849;48.154;17.042;2022-10-16T09:09:53;99395.06;;;19.25;66.85
60976;BME280;46849;48.154;17.042;2022-10-16T09:12:53;99406.00;;;19.50;68.49
60976;BME280;46849;48.154;17.042;2022-10-16T09:21:36;99401.06;;;21.53;60.54
60976;BME280;46849;48.154;17.042;2022-10-16T09:24:25;99405.97;;;21.74;59.29
60976;BME280;46849;48.154;17.042;2022-10-16T09:27:11;99405.16;;;20.51;62.82
60976;BME280;46849;48.154;17.042;2022-10-16T09:29:56;99404.09;;;21.15;61.86
60976;BME280;46849;48.154;17.042;2022-10-16T09:32:42;99404.97;;;20.97;64.45
60976;BME280;46849;48.154;17.042;2022-10-16T09:38:31;99415.25;;;21.19;61.13
60976;BME280;46849;48.154;17.042;2022-10-16T09:41:19;99417.25;;;21.16;60.43
60976;BME280;46849;48.154;17.042;2022-10-16T09:44:40;99420.41;;;22.07;59.43
60976;BME280;46849;48.154;17.042;2022-10-16T09:47:31;99415.06;;;22.90;59.71
60976;BME280;46849;48.154;17.042;2022-10-16T09:50:22;99421.38;;;23.62;55.39
60976;BME280;46849;48.154;17.042;2022-10-16T09:53:14;99424.09;;;23.46;55.90
60976;BME280;46849;48.154;17.042;2022-10-16T09:55:59;99423.91;;;22.57;56.87
60976;BME280;46849;48.154;17.042;2022-10-16T09:58:50;99426.78;;;22.72;59.14
60976;BME280;46849;48.154;17.042;2022-10-16T10:01:39;99430.31;;;23.30;58.87
60976;BME280;46849;48.154;17.042;2022-10-16T10:04:24;99428.22;;;23.57;55.56
60976;BME280;46849;48.154;17.042;2022-10-16T10:07:23;99427.19;;;23.18;53.71
60976;BME280;46849;48.154;17.042;2022-10-16T10:10:29;99427.31;;;23.24;56.31
60976;BME280;46849;48.154;17.042;2022-10-16T10:13:22;99426.09;;;22.28;56.76
60976;BME280;46849;48.154;17.042;2022-10-16T10:16:08;99436.25;;;22.25;58.38
60976;BME280;46849;48.154;17.042;2022-10-16T10:19:00;99421.75;;;23.83;55.31
60976;BME280;46849;48.154;17.042;2022-10-16T10:21:44;99421.34;;;25.03;52.48
60976;BME280;46849;48.154;17.042;2022-10-16T10:24:29;99418.81;;;25.32;49.57
60976;BME280;46849;48.154;17.042;2022-10-16T10:27:16;99419.56;;;25.26;50.63
60976;BME280;46849;48.154;17.042;2022-10-16T10:36:40;99422.91;;;24.35;52.79
60976;BME280;46849;48.154;17.042;2022-10-16T10:39:29;99410.53;;;24.58;53.15
60976;BME280;46849;48.154;17.042;2022-10-16T10:45:58;99416.97;;;25.32;49.66
60976;BME280;46849;48.154;17.042;2022-10-16T10:57:15;99415.56;;;25.52;50.08
60976;BME280;46849;48.154;17.042;2022-10-16T11:00:23;99423.75;;;24.36;51.27
60976;BME280;46849;48.154;17.042;2022-10-16T11:07:04;99420.97;;;24.29;52.72
60976;BME280;46849;48.154;17.042;2022-10-16T11:10:28;99420.47;;;26.22;50.16
60976;BME280;46849;48.154;17.042;2022-10-16T11:16:50;99414.72;;;24.37;51.22
60976;BME280;46849;48.154;17.042;2022-10-16T11:19:43;99414.63;;;24.69;51.63
60976;BME280;46849;48.154;17.042;2022-10-16T11:22:33;99412.25;;;25.04;52.52
60976;BME280;46849;48.154;17.042;2022-10-16T11:25:30;99407.19;;;25.09;52.09
60976;BME280;46849;48.154;17.042;2022-10-16T11:28:22;99397.16;;;24.88;50.97
60976;BME280;46849;48.154;17.042;2022-10-16T11:31:39;99403.22;;;25.73;48.37
60976;BME280;46849;48.154;17.042;2022-10-16T11:34:53;99404.75;;;26.19;47.57
60976;BME280;46849;48.154;17.042;2022-10-16T11:37:43;99402.72;;;25.32;50.14
60976;BME280;46849;48.154;17.042;2022-10-16T11:40:31;99395.56;;;25.69;50.61
60976;BME280;46849;48.154;17.042;2022-10-16T11:43:22;99386.19;;;26.75;47.78
60976;BME280;46849;48.154;17.042;2022-10-16T11:46:13;99403.91;;;26.40;45.90
60976;BME280;46849;48.154;17.042;2022-10-16T11:49:13;99397.69;;;26.18;49.33
60976;BME280;46849;48.154;17.042;2022-10-16T11:52:07;99384.44;;;26.96;46.66
60976;BME280;46849;48.154;17.042;2022-10-16T11:55:06;99391.34;;;27.05;45.80
60976;BME280;46849;48.154;17.042;2022-10-16T11:58:03;99397.25;;;26.14;46.36
60976;BME280;46849;48.154;17.042;2022-10-16T12:01:47;99408.63;;;25.94;49.69
60976;BME280;46849;48.154;17.042;2022-10-16T12:04:21;99397.31;;;25.99;47.94
60976;BME280;46849;48.154;17.042;2022-10-16T12:07:22;99401.47;;;26.02;48.87
60976;BME280;46849;48.154;17.042;2022-10-16T12:10:27;99393.41;;;25.28;49.52
60976;BME280;46849;48.154;17.042;2022-10-16T12:13:31;99398.00;;;24.73;48.84
60976;BME280;46849;48.154;17.042;2022-10-16T12:19:15;99392.59;;;26.45;48.40
60976;BME280;46849;48.154;17.042;2022-10-16T12:22:02;99392.63;;;24.73;52.47
60976;BME280;46849;48.154;17.042;2022-10-16T12:24:50;99389.63;;;24.92;50.29
60976;BME280;46849;48.154;17.042;2022-10-16T12:27:35;99395.63;;;25.39;49.33
60976;BME280;46849;48.154;17.042;2022-10-16T12:30:23;99388.44;;;25.25;52.02
60976;BME280;46849;48.154;17.042;2022-10-16T12:33:21;99387.72;;;25.68;50.23
60976;BME280;46849;48.154;17.042;2022-10-16T12:36:15;99373.13;;;25.40;50.25
60976;BME280;46849;48.154;17.042;2022-10-16T12:39:20;99383.56;;;26.81;45.17
60976;BME280;46849;48.154;17.042;2022-10-16T12:45:32;99382.06;;;25.63;50.72
60976;BME280;46849;48.154;17.042;2022-10-16T12:48:22;99379.88;;;26.89;46.06
60976;BME280;46849;48.154;17.042;2022-10-16T12:51:34;99399.34;;;25.75;48.35
60976;BME280;46849;48.154;17.042;2022-10-16T12:54:37;99406.66;;;25.51;49.33
60976;BME280;46849;48.154;17.042;2022-10-16T12:57:35;99402.84;;;24.93;49.69
60976;BME280;46849;48.154;17.042;2022-10-16T13:00:32;99406.34;;;25.91;48.18
60976;BME280;46849;48.154;17.042;2022-10-16T13:06:32;99405.94;;;25.94;48.59
60976;BME280;46849;48.154;17.042;2022-10-16T13:09:30;99397.03;;;26.60;47.39
60976;BME280;46849;48.154;17.042;2022-10-16T13:21:25;99399.16;;;25.62;47.58
60976;BME280;46849;48.154;17.042;2022-10-16T13:30:02;99405.88;;;25.20;50.61
60976;BME280;46849;48.154;17.042;2022-10-16T13:33:02;99405.50;;;25.24;50.10
60976;BME280;46849;48.154;17.042;2022-10-16T13:35:53;99398.97;;;25.11;52.38
60976;BME280;46849;48.154;17.042;2022-10-16T13:38:38;99401.97;;;25.68;47.28
60976;BME280;46849;48.154;17.042;2022-10-16T13:41:23;99409.28;;;24.84;50.38
60976;BME280;46849;48.154;17.042;2022-10-16T13:44:14;99411.66;;;24.79;50.16
60976;BME280;46849;48.154;17.042;2022-10-16T13:47:01;99414.56;;;24.92;49.09
60976;BME280;46849;48.154;17.042;2022-10-16T13:49:46;99419.59;;;24.72;50.43
60976;BME280;46849;48.154;17.042;2022-10-16T13:52:31;99412.25;;;24.51;51.54
60976;BME280;46849;48.154;17.042;2022-10-16T13:55:18;99417.81;;;25.33;48.90
60976;BME280;46849;48.154;17.042;2022-10-16T13:58:14;99410.91;;;25.76;49.59
60976;BME280;46849;48.154;17.042;2022-10-16T14:01:00;99417.81;;;26.07;47.73
60976;BME280;46849;48.154;17.042;2022-10-16T14:03:46;99417.78;;;25.63;49.03
60976;BME280;46849;48.154;17.042;2022-10-16T14:06:32;99420.94;;;25.37;49.69
60976;BME280;46849;48.154;17.042;2022-10-16T14:09:28;99426.28;;;25.67;47.56
60976;BME280;46849;48.154;17.042;2022-10-16T14:12:14;99421.84;;;24.45;50.54
60976;BME280;46849;48.154;17.042;2022-10-16T14:14:59;99426.44;;;24.75;51.45
60976;BME280;46849;48.154;17.042;2022-10-16T14:17:49;99426.13;;;24.69;50.31
60976;BME280;46849;48.154;17.042;2022-10-16T14:20:34;99419.38;;;24.58;51.09
60976;BME280;46849;48.154;17.042;2022-10-16T14:23:30;99424.44;;;25.37;47.96
60976;BME280;46849;48.154;17.042;2022-10-16T14:26:18;99430.50;;;25.76;48.24
60976;BME280;46849;48.154;17.042;2022-10-16T14:29:11;99429.09;;;25.13;49.29
60976;BME280;46849;48.154;17.042;2022-10-16T14:32:00;99428.78;;;25.68;48.05
60976;BME280;46849;48.154;17.042;2022-10-16T14:34:53;99432.09;;;25.55;47.29
60976;BME280;46849;48.154;17.042;2022-10-16T14:37:38;99427.78;;;25.39;48.68
60976;BME280;46849;48.154;17.042;2022-10-16T14:40:26;99427.19;;;24.83;49.22
60976;BME280;46849;48.154;17.042;2022-10-16T14:43:28;99419.66;;;25.32;49.69
60976;BME280;46849;48.154;17.042;2022-10-16T14:46:19;99429.25;;;25.27;48.34
60976;BME280;46849;48.154;17.042;2022-10-16T14:49:16;99427.78;;;25.39;48.96
60976;BME280;46849;48.154;17.042;2022-10-16T14:52:01;99426.50;;;24.51;50.15
60976;BME280;46849;48.154;17.042;2022-10-16T14:54:50;99434.00;;;24.32;50.63
60976;BME280;46849;48.154;17.042;2022-10-16T14:57:36;99429.91;;;24.60;51.16
60976;BME280;46849;48.154;17.042;2022-10-16T15:00:23;99437.63;;;24.16;51.39
60976;BME280;46849;48.154;17.042;2022-10-16T15:03:08;99435.94;;;24.39;50.68
60976;BME280;46849;48.154;17.042;2022-10-16T15:05:52;99434.47;;;24.59;51.17
60976;BME280;46849;48.154;17.042;2022-10-16T15:08:37;99437.09;;;23.89;51.82
60976;BME280;46849;48.154;17.042;2022-10-16T15:11:23;99433.63;;;24.12;52.66
60976;BME280;46849;48.154;17.042;2022-10-16T15:14:11;99440.41;;;23.91;52.30
60976;BME280;46849;48.154;17.042;2022-10-16T15:16:59;99439.19;;;23.70;53.07
60976;BME280;46849;48.154;17.042;2022-10-16T15:19:44;99442.66;;;23.47;53.98
60976;BME280;46849;48.154;17.042;2022-10-16T15:22:28;99441.94;;;22.88;55.52
60976;BME280;46849;48.154;17.042;2022-10-16T15:25:37;99450.81;;;22.81;55.97
60976;BME280;46849;48.154;17.042;2022-10-16T15:28:25;99459.28;;;22.51;56.49
60976;BME280;46849;48.154;17.042;2022-10-16T15:31:19;99464.78;;;22.49;57.63
60976;BME280;46849;48.154;17.042;2022-10-16T15:34:04;99468.88;;;21.85;58.65
60976;BME280;46849;48.154;17.042;2022-10-16T15:36:52;99465.78;;;21.72;59.38
60976;BME280;46849;48.154;17.042;2022-10-16T15:39:36;99468.25;;;21.65;59.71
60976;BME280;46849;48.154;17.042;2022-10-16T15:42:21;99473.63;;;21.73;59.48
60976;BME280;46849;48.154;17.042;2022-10-16T15:45:06;99475.22;;;21.58;59.89
60976;BME280;46849;48.154;17.042;2022-10-16T15:47:50;99475.50;;;21.11;61.64
60976;BME280;46849;48.154;17.042;2022-10-16T15:50:37;99487.31;;;20.90;62.45
60976;BME280;46849;48.154;17.042;2022-10-16T15:53:22;99489.16;;;20.72;63.26
60976;BME280;46849;48.154;17.042;2022-10-16T15:56:10;99488.75;;;20.66;63.66
60976;BME280;46849;48.154;17.042;2022-10-16T15:59:07;99488.03;;;20.38;64.91